createdAt,value
2022-11-03T00:03:43.355Z,101158.53
2022-11-03T00:13:44.775Z,101158.53
2022-11-03T00:23:46.623Z,101142.97
2022-11-03T00:33:48.312Z,101132.63
2022-11-03T00:43:50.966Z,101128.28
2022-11-03T00:53:57.211Z,101120.56
2022-11-03T01:04:18.212Z,101111.97
2022-11-03T01:14:19.937Z,101111.97
2022-11-03T01:24:21.533Z,101106.78
2022-11-03T01:34:22.989Z,101088.66
2022-11-03T01:44:28.979Z,101067.91
2022-11-03T01:54:31.962Z,101043.69
2022-11-03T02:04:34.527Z,101019.56
2022-11-03T02:14:42.762Z,101018.69
2022-11-03T02:24:54.179Z,101003.13
2022-11-03T02:35:24.308Z,100989.31
2022-11-03T02:45:27.813Z,100972.94
2022-11-03T02:55:45.868Z,100947.03
2022-11-03T03:05:48.809Z,100942.66
2022-11-03T03:16:05.918Z,100921.94
2022-11-03T03:26:39.381Z,100918.50
2022-11-03T03:36:43.356Z,100915.91
2022-11-03T03:46:50.820Z,100896.91
2022-11-03T03:56:59.468Z,100890.00
2022-11-03T04:07:19.645Z,100877.91
2022-11-03T04:17:39.500Z,100869.25
2022-11-03T04:27:44.474Z,100851.97
2022-11-03T04:37:50.777Z,100845.03
2022-11-03T04:47:53.254Z,100827.69
2022-11-03T04:57:58.329Z,100832.06
2022-11-03T05:07:59.692Z,100809.56
2022-11-03T05:18:13.151Z,100794.00
2022-11-03T05:28:31.948Z,100781.88
2022-11-03T05:38:33.765Z,100770.59
2022-11-03T05:48:40.908Z,100755.00
2022-11-03T05:58:44.194Z,100748.13
2022-11-03T06:08:46.339Z,100736.00
2022-11-03T06:18:47.946Z,100738.56
2022-11-03T06:28:49.519Z,100723.03
2022-11-03T06:38:56.775Z,100713.56
2022-11-03T06:49:00.288Z,100696.22
2022-11-03T06:59:01.732Z,100698.81
2022-11-03T07:09:07.261Z,100686.69
2022-11-03T07:19:26.698Z,100671.09
2022-11-03T07:29:31.095Z,100674.44
2022-11-03T07:39:36.812Z,100668.34
2022-11-03T07:49:38.181Z,100648.28
2022-11-03T07:59:43.844Z,100644.66
2022-11-03T08:09:45.178Z,100628.00
2022-11-03T08:19:46.558Z,100624.38
2022-11-03T08:29:47.976Z,100618.25
2022-11-03T08:39:49.322Z,100592.31
2022-11-03T08:49:50.652Z,100592.25
2022-11-03T08:59:52.974Z,100569.59
2022-11-03T09:20:15.730Z,100527.75
2022-11-03T09:30:17.917Z,100492.91
2022-11-03T09:40:19.720Z,100462.22
2022-11-03T09:50:21.301Z,100454.75
2022-11-03T10:00:23.786Z,100431.97
2022-11-03T10:10:26.031Z,100412.63
2022-11-03T10:20:29.037Z,100381.25
2022-11-03T10:30:36.247Z,100360.22
2022-11-03T10:40:48.112Z,100346.13
2022-11-03T10:50:49.955Z,100325.00
2022-11-03T11:00:51.402Z,100291.78
2022-11-03T11:10:53.879Z,100270.78
2022-11-03T11:21:00.001Z,100266.59
2022-11-03T11:31:02.017Z,100251.28
2022-11-03T11:41:03.357Z,100243.72
2022-11-03T11:51:10.688Z,100220.03
2022-11-03T12:01:33.746Z,100178.97
2022-11-03T12:11:56.805Z,100153.25
2022-11-03T12:21:59.117Z,100124.59
2022-11-03T12:32:00.479Z,100106.69
2022-11-03T12:42:01.843Z,100072.97
2022-11-03T12:52:08.342Z,100044.63
2022-11-03T13:02:11.018Z,100027.19
2022-11-03T13:12:31.183Z,100010.75
2022-11-03T13:22:32.530Z,99975.28
2022-11-03T13:32:34.003Z,99957.28
2022-11-03T13:42:35.359Z,99923.66
2022-11-03T13:52:36.744Z,99914.25
2022-11-03T14:12:59.396Z,99869.34
2022-11-03T14:23:00.744Z,99847.03
2022-11-03T14:33:02.069Z,99830.91
2022-11-03T14:43:03.413Z,99820.03
2022-11-03T14:53:04.768Z,99812.28
2022-11-03T15:03:06.075Z,99838.66
2022-11-03T15:13:08.017Z,99850.34
2022-11-03T15:33:31.092Z,99818.72
2022-11-03T15:43:32.436Z,99808.03
2022-11-03T15:53:33.897Z,99778.81
2022-11-03T16:03:35.238Z,99737.84
2022-11-03T16:13:36.615Z,99732.84
2022-11-03T16:23:37.963Z,99701.28
2022-11-03T16:33:39.306Z,99686.97
2022-11-03T16:43:40.640Z,99678.44
2022-11-03T16:53:42.179Z,99668.25
2022-11-03T17:03:44.291Z,99650.34
2022-11-03T17:13:45.624Z,99642.69
2022-11-03T17:23:46.964Z,99630.47
2022-11-03T17:33:48.418Z,99611.63
2022-11-03T17:43:49.874Z,99597.06
2022-11-03T17:53:51.475Z,99595.16
2022-11-03T18:03:53.417Z,99588.91
2022-11-03T18:13:54.823Z,99575.38
2022-11-03T18:23:56.248Z,99569.94
2022-11-03T18:33:58.756Z,99568.09
2022-11-03T18:44:00.516Z,99571.53
2022-11-03T18:54:02.005Z,99557.66
2022-11-03T19:04:03.495Z,99547.16
2022-11-03T19:14:06.967Z,99540.34
2022-11-03T19:24:08.429Z,99537.63
2022-11-03T19:34:15.651Z,99510.16
2022-11-03T19:44:16.998Z,99515.53
2022-11-03T19:54:20.745Z,99516.25
2022-11-03T20:04:22.118Z,99503.56
2022-11-03T20:14:26.956Z,99499.06
2022-11-03T20:24:28.391Z,99498.19
2022-11-03T20:34:29.772Z,99493.88
2022-11-03T20:44:31.273Z,99497.44
2022-11-03T20:54:32.844Z,99516.47
2022-11-03T21:04:34.203Z,99499.31
2022-11-03T21:14:35.770Z,99484.53
2022-11-03T21:24:37.119Z,99524.44
2022-11-03T21:34:39.222Z,99519.94
2022-11-03T21:44:40.558Z,99530.31
2022-11-03T21:54:43.014Z,99528.50
2022-11-03T22:04:47.540Z,99518.13
2022-11-03T22:15:07.211Z,99517.28
2022-11-03T22:25:28.479Z,99495.78
2022-11-03T22:35:49.030Z,99528.72
2022-11-03T22:45:54.845Z,99550.19
2022-11-03T22:55:58.061Z,99572.72
2022-11-03T23:06:04.305Z,99617.19
2022-11-03T23:16:13.621Z,99620.09
2022-11-03T23:26:16.042Z,99618.69
2022-11-03T23:36:17.975Z,99617.25
2022-11-03T23:46:40.401Z,99665.03
2022-11-03T23:57:03.804Z,99695.31
